createdAt,value
2019-02-14T00:00:37.761Z,15.20
2019-02-14T00:03:10.341Z,11.47
2019-02-14T00:05:44.180Z,13.07
2019-02-14T00:08:18.735Z,15.77
2019-02-14T00:10:54.928Z,13.90
2019-02-14T00:13:26.495Z,15.07
2019-02-14T00:16:03.763Z,14.07
2019-02-14T00:18:38.814Z,13.20
2019-02-14T00:21:13.323Z,15.77
2019-02-14T00:23:45.486Z,14.50
2019-02-14T00:26:19.642Z,14.97
2019-02-14T00:28:55.564Z,14.40
2019-02-14T00:31:28.131Z,14.70
2019-02-14T00:34:03.752Z,16.27
2019-02-14T00:36:36.556Z,16.57
2019-02-14T00:39:08.130Z,16.87
2019-02-14T00:41:39.902Z,17.00
2019-02-14T00:44:17.796Z,17.60
2019-02-14T00:46:47.862Z,15.93
2019-02-14T00:49:23.969Z,17.87
2019-02-14T00:52:00.865Z,16.20
2019-02-14T00:54:34.970Z,17.07
2019-02-14T00:57:06.359Z,16.60
2019-02-14T00:59:41.045Z,19.73
2019-02-14T01:02:11.586Z,18.77
2019-02-14T01:04:45.895Z,19.67
2019-02-14T01:07:16.605Z,16.83
2019-02-14T01:09:50.044Z,18.03
2019-02-14T01:12:21.164Z,20.60
2019-02-14T01:17:34.378Z,22.10
2019-02-14T01:22:44.700Z,17.57
2019-02-14T01:25:16.892Z,22.67
2019-02-14T01:27:47.027Z,18.83
2019-02-14T01:30:21.322Z,23.93
2019-02-14T01:32:54.279Z,20.17
2019-02-14T01:35:30.162Z,21.57
2019-02-14T01:38:00.747Z,19.23
2019-02-14T01:40:34.862Z,19.63
2019-02-14T01:43:05.758Z,20.80
2019-02-14T01:45:37.261Z,20.83
2019-02-14T01:48:14.338Z,24.40
2019-02-14T01:50:48.377Z,23.63
2019-02-14T01:53:20.979Z,18.90
2019-02-14T01:55:51.677Z,22.73
2019-02-14T01:58:25.624Z,21.50
2019-02-14T02:01:00.469Z,20.03
2019-02-14T02:03:35.276Z,21.03
2019-02-14T02:06:05.362Z,21.50
2019-02-14T02:08:40.444Z,24.47
2019-02-14T02:11:12.724Z,17.83
2019-02-14T02:13:45.004Z,21.40
2019-02-14T02:16:18.891Z,19.93
2019-02-14T02:18:55.983Z,20.33
2019-02-14T02:21:28.329Z,21.67
2019-02-14T02:24:03.690Z,21.10
2019-02-14T02:26:36.563Z,22.03
2019-02-14T02:29:10.279Z,19.47
2019-02-14T02:31:43.458Z,25.33
2019-02-14T02:34:16.768Z,24.87
2019-02-14T02:36:49.230Z,22.53
2019-02-14T02:39:23.256Z,20.87
2019-02-14T02:42:00.447Z,23.33
2019-02-14T02:44:36.096Z,21.73
2019-02-14T02:47:13.605Z,23.43
2019-02-14T02:49:44.943Z,23.23
2019-02-14T02:52:16.995Z,19.33
2019-02-14T02:54:56.368Z,22.07
2019-02-14T02:57:26.463Z,22.83
2019-02-14T03:00:05.291Z,25.97
2019-02-14T03:02:37.052Z,28.80
2019-02-14T03:05:18.512Z,21.53
2019-02-14T03:07:54.475Z,22.00
2019-02-14T03:10:25.588Z,22.87
2019-02-14T03:12:58.938Z,23.50
2019-02-14T03:15:31.027Z,19.50
2019-02-14T03:18:04.541Z,24.07
2019-02-14T03:20:38.927Z,21.47
2019-02-14T03:23:16.872Z,26.23
2019-02-14T03:25:49.006Z,24.53
2019-02-14T03:28:24.957Z,29.53
2019-02-14T03:30:55.549Z,22.80
2019-02-14T03:33:35.027Z,25.60
2019-02-14T03:36:07.401Z,22.77
2019-02-14T03:38:41.411Z,27.33
2019-02-14T03:43:50.385Z,29.00
2019-02-14T03:46:21.797Z,23.20
2019-02-14T03:48:56.945Z,24.03
2019-02-14T03:51:34.254Z,24.03
2019-02-14T03:54:04.328Z,23.63
2019-02-14T03:56:38.372Z,25.23
2019-02-14T03:59:09.645Z,24.57
2019-02-14T04:01:43.353Z,26.03
2019-02-14T04:04:16.436Z,29.40
2019-02-14T04:06:49.931Z,27.20
2019-02-14T04:09:29.667Z,26.63
2019-02-14T04:12:04.201Z,27.00
2019-02-14T04:14:36.915Z,26.93
2019-02-14T04:17:10.059Z,23.77
2019-02-14T04:19:40.211Z,27.13
2019-02-14T04:22:13.182Z,23.30
2019-02-14T04:24:47.259Z,29.63
2019-02-14T04:27:20.262Z,23.27
2019-02-14T04:29:53.053Z,25.43
2019-02-14T04:32:24.926Z,22.87
2019-02-14T04:34:58.131Z,31.33
2019-02-14T04:37:35.006Z,27.30
2019-02-14T04:40:14.727Z,35.80
2019-02-14T04:42:48.135Z,29.63
2019-02-14T04:45:22.226Z,28.23
2019-02-14T04:47:57.147Z,29.67
2019-02-14T04:50:28.652Z,26.57
2019-02-14T04:53:03.740Z,29.17
2019-02-14T04:55:36.786Z,26.60
2019-02-14T04:58:10.174Z,27.47
2019-02-14T05:00:44.570Z,25.57
2019-02-14T05:03:18.290Z,26.70
2019-02-14T05:05:49.528Z,26.70
2019-02-14T05:08:23.364Z,29.40
2019-02-14T05:10:55.626Z,28.37
2019-02-14T05:13:33.535Z,32.27
2019-02-14T05:16:06.990Z,27.90
2019-02-14T05:18:41.166Z,26.73
2019-02-14T05:21:13.082Z,27.53
2019-02-14T05:23:46.549Z,30.83
2019-02-14T05:26:16.749Z,29.43
2019-02-14T05:28:52.788Z,30.87
2019-02-14T05:31:23.730Z,26.77
2019-02-14T05:33:56.858Z,30.93
2019-02-14T05:36:29.079Z,27.53
2019-02-14T05:39:03.518Z,30.77
2019-02-14T05:41:39.369Z,32.30
2019-02-14T05:44:13.287Z,31.33
2019-02-14T05:46:46.952Z,30.93
2019-02-14T05:49:19.976Z,30.37
2019-02-14T05:51:54.896Z,31.67
2019-02-14T05:54:26.242Z,27.80
2019-02-14T05:56:59.546Z,28.80
2019-02-14T05:59:35.878Z,28.17
2019-02-14T06:02:05.912Z,31.20
2019-02-14T06:04:39.224Z,29.70
2019-02-14T06:07:14.500Z,30.10
2019-02-14T06:09:46.392Z,30.77
2019-02-14T06:12:20.250Z,30.90
2019-02-14T06:14:54.453Z,29.03
2019-02-14T06:17:28.156Z,30.13
2019-02-14T06:19:58.882Z,29.10
2019-02-14T06:22:33.534Z,27.93
2019-02-14T06:25:06.203Z,25.97
2019-02-14T06:27:38.976Z,27.07
2019-02-14T06:30:11.018Z,29.77
2019-02-14T06:32:45.474Z,28.27
2019-02-14T06:35:16.908Z,28.43
2019-02-14T06:37:56.796Z,28.80
2019-02-14T06:40:28.931Z,29.40
2019-02-14T06:43:03.357Z,29.10
2019-02-14T06:45:36.248Z,28.80
2019-02-14T06:50:54.432Z,28.50
2019-02-14T06:53:28.950Z,31.27
2019-02-14T06:56:04.592Z,24.80
2019-02-14T06:58:35.118Z,31.50
2019-02-14T07:01:05.938Z,28.50
2019-02-14T07:03:39.144Z,28.40
2019-02-14T07:06:14.902Z,29.97
2019-02-14T07:08:49.166Z,25.00
2019-02-14T07:11:28.605Z,28.83
2019-02-14T07:14:07.740Z,30.60
2019-02-14T07:16:59.852Z,27.30
2019-02-14T07:19:31.757Z,24.93
2019-02-14T07:22:09.186Z,29.80
2019-02-14T07:30:04.822Z,27.57
2019-02-14T07:32:38.007Z,32.67
2019-02-14T07:35:15.401Z,31.50
2019-02-14T07:37:50.436Z,33.03
2019-02-14T07:40:25.914Z,37.17
2019-02-14T07:43:00.815Z,27.23
2019-02-14T07:45:35.070Z,27.60
2019-02-14T07:48:07.281Z,24.47
2019-02-14T07:50:45.670Z,29.37
2019-02-14T07:53:16.986Z,27.20
2019-02-14T07:55:53.373Z,32.60
2019-02-14T07:58:27.874Z,29.53
2019-02-14T08:01:00.799Z,33.83
2019-02-14T08:03:35.354Z,32.23
2019-02-14T08:06:07.383Z,25.70
2019-02-14T08:08:43.759Z,29.47
2019-02-14T08:11:17.005Z,24.23
2019-02-14T08:13:49.923Z,29.83
2019-02-14T08:16:21.481Z,24.60
2019-02-14T08:18:54.682Z,27.07
2019-02-14T08:21:26.617Z,28.13
2019-02-14T08:24:05.358Z,33.73
2019-02-14T08:26:37.843Z,28.40
2019-02-14T08:29:10.890Z,27.67
2019-02-14T08:31:45.503Z,27.70
2019-02-14T08:34:23.847Z,30.50
2019-02-14T08:36:57.241Z,28.60
2019-02-14T08:39:34.051Z,28.60
2019-02-14T08:42:09.389Z,25.77
2019-02-14T08:44:42.875Z,39.63
2019-02-14T08:47:13.901Z,26.23
2019-02-14T08:49:47.645Z,34.50
2019-02-14T08:52:19.117Z,29.10
2019-02-14T08:54:58.207Z,24.50
2019-02-14T08:57:29.880Z,28.83
2019-02-14T09:00:06.145Z,25.37
2019-02-14T09:02:45.455Z,27.00
2019-02-14T09:05:17.933Z,25.30
2019-02-14T09:07:54.613Z,27.40
2019-02-14T09:10:28.817Z,28.63
2019-02-14T09:13:04.737Z,28.03
2019-02-14T09:15:40.550Z,23.63
2019-02-14T09:18:16.277Z,26.47
2019-02-14T09:20:56.182Z,26.57
2019-02-14T09:23:28.111Z,26.87
2019-02-14T09:26:03.530Z,26.90
2019-02-14T09:28:43.423Z,23.60
2019-02-14T09:31:19.600Z,27.77
2019-02-14T09:33:57.297Z,24.17
2019-02-14T09:36:34.781Z,23.57
2019-02-14T09:39:07.779Z,24.83
2019-02-14T09:41:44.443Z,24.73
2019-02-14T09:44:20.654Z,23.37
2019-02-14T09:46:57.779Z,24.50
2019-02-14T09:49:29.717Z,25.57
2019-02-14T09:52:00.119Z,26.40
2019-02-14T09:54:33.163Z,25.53
2019-02-14T09:57:04.767Z,28.67
2019-02-14T09:59:39.351Z,23.07
2019-02-14T10:02:14.583Z,25.53
2019-02-14T10:04:48.195Z,23.10
2019-02-14T10:07:20.199Z,23.53
2019-02-14T10:09:54.099Z,23.00
2019-02-14T10:12:25.208Z,25.70
2019-02-14T10:15:00.473Z,25.17
2019-02-14T10:17:37.868Z,27.63
2019-02-14T10:20:12.743Z,20.70
2019-02-14T10:22:46.390Z,24.80
2019-02-14T10:25:18.819Z,29.43
2019-02-14T10:27:52.015Z,23.87
2019-02-14T10:30:25.957Z,22.80
2019-02-14T10:33:02.108Z,22.97
2019-02-14T10:35:36.593Z,29.23
2019-02-14T10:38:07.172Z,21.17
2019-02-14T10:43:19.200Z,25.27
2019-02-14T10:45:51.987Z,22.40
2019-02-14T10:48:30.117Z,23.23
2019-02-14T10:51:01.116Z,22.97
2019-02-14T10:53:36.936Z,23.10
2019-02-14T10:56:08.272Z,21.87
2019-02-14T10:58:41.021Z,25.33
2019-02-14T11:01:11.014Z,19.33
2019-02-14T11:03:46.476Z,22.97
2019-02-14T11:06:19.070Z,21.60
2019-02-14T11:08:50.808Z,21.47
2019-02-14T11:11:21.435Z,18.67
2019-02-14T11:13:55.857Z,19.97
2019-02-14T11:16:27.395Z,17.33
2019-02-14T11:19:04.823Z,19.10
2019-02-14T11:21:36.982Z,14.80
2019-02-14T11:24:10.280Z,15.77
2019-02-14T11:26:41.218Z,14.83
2019-02-14T11:29:15.146Z,21.17
2019-02-14T11:31:45.999Z,15.07
2019-02-14T11:34:20.974Z,19.97
2019-02-14T11:36:52.134Z,13.80
2019-02-14T11:39:24.904Z,16.87
2019-02-14T11:41:58.528Z,19.97
2019-02-14T11:44:39.832Z,13.77
2019-02-14T11:47:08.724Z,11.60
2019-02-14T11:49:40.889Z,12.50
2019-02-14T11:54:55.465Z,13.77
2019-02-14T11:57:30.912Z,13.57
2019-02-14T12:00:02.676Z,18.13
2019-02-14T12:02:37.970Z,13.40
2019-02-14T12:05:08.289Z,12.30
2019-02-14T12:07:44.314Z,11.50
2019-02-14T12:10:14.635Z,11.43
2019-02-14T12:12:51.804Z,15.93
2019-02-14T12:15:24.878Z,13.10
2019-02-14T12:17:59.048Z,10.57
2019-02-14T12:20:33.011Z,11.37
2019-02-14T12:23:03.858Z,10.27
2019-02-14T12:25:37.508Z,10.03
2019-02-14T12:28:08.931Z,8.37
2019-02-14T12:30:41.174Z,8.50
2019-02-14T12:33:14.787Z,10.50
2019-02-14T12:35:49.622Z,9.10
2019-02-14T12:38:23.086Z,12.67
2019-02-14T12:40:54.385Z,11.90
2019-02-14T12:43:39.560Z,9.07
2019-02-14T12:46:09.674Z,11.83
2019-02-14T12:48:47.479Z,9.63
2019-02-14T12:51:17.707Z,8.53
2019-02-14T12:53:50.571Z,7.23
2019-02-14T12:56:21.287Z,7.90
2019-02-14T12:58:55.375Z,10.27
2019-02-14T13:01:27.201Z,7.43
2019-02-14T13:03:59.767Z,6.40
2019-02-14T13:06:30.901Z,7.13
2019-02-14T13:09:03.907Z,6.43
2019-02-14T13:11:35.630Z,6.97
2019-02-14T13:14:08.051Z,5.37
2019-02-14T13:16:38.071Z,6.33
2019-02-14T13:19:13.599Z,6.37
2019-02-14T13:21:46.785Z,7.50
2019-02-14T13:24:21.861Z,5.57
2019-02-14T13:26:56.514Z,4.63
2019-02-14T13:29:28.945Z,7.33
2019-02-14T13:32:07.014Z,5.67
2019-02-14T13:34:37.054Z,3.87
2019-02-14T13:37:09.035Z,6.70
2019-02-14T13:39:40.611Z,4.17
2019-02-14T13:42:16.990Z,4.63
2019-02-14T13:44:49.535Z,5.27
2019-02-14T13:49:55.828Z,4.73
2019-02-14T13:52:28.502Z,6.17
2019-02-14T13:55:04.341Z,5.53
2019-02-14T13:57:39.465Z,14.10
2019-02-14T14:00:27.027Z,4.07
2019-02-14T14:02:59.692Z,7.60
2019-02-14T14:05:30.615Z,4.93
2019-02-14T14:08:05.683Z,4.70
2019-02-14T14:10:42.147Z,4.57
2019-02-14T14:13:16.032Z,4.37
2019-02-14T14:15:49.126Z,4.20
2019-02-14T14:18:24.662Z,4.80
2019-02-14T14:21:00.045Z,4.10
2019-02-14T14:23:30.427Z,5.70
2019-02-14T14:26:04.291Z,4.43
2019-02-14T14:28:39.055Z,5.10
2019-02-14T14:31:14.763Z,4.30
2019-02-14T14:33:51.899Z,5.23
2019-02-14T14:36:29.049Z,5.10
2019-02-14T14:39:06.019Z,6.27
2019-02-14T14:41:39.187Z,4.73
2019-02-14T14:44:31.357Z,4.50
2019-02-14T14:47:08.829Z,5.33
2019-02-14T14:49:39.012Z,6.20
2019-02-14T14:52:16.279Z,3.73
2019-02-14T14:54:47.459Z,5.10
2019-02-14T14:57:24.617Z,4.57
2019-02-14T15:00:00.356Z,4.40
2019-02-14T15:02:33.364Z,4.63
2019-02-14T15:05:05.082Z,5.77
2019-02-14T15:07:43.142Z,5.60
2019-02-14T15:10:18.173Z,5.93
2019-02-14T15:12:49.644Z,4.50
2019-02-14T15:15:25.545Z,5.90
2019-02-14T15:18:03.947Z,3.60
2019-02-14T15:20:40.954Z,4.47
2019-02-14T15:23:15.552Z,4.53
2019-02-14T15:25:47.860Z,5.07
2019-02-14T15:28:17.884Z,5.30
2019-02-14T15:30:49.805Z,4.37
2019-02-14T15:33:24.955Z,5.80
2019-02-14T15:35:57.506Z,4.77
2019-02-14T15:38:36.890Z,3.93
2019-02-14T15:41:07.893Z,5.17
2019-02-14T15:43:46.114Z,3.67
2019-02-14T15:46:16.106Z,3.73
2019-02-14T15:48:48.199Z,5.00
2019-02-14T15:51:20.023Z,3.50
2019-02-14T15:53:55.100Z,3.47
2019-02-14T15:56:27.212Z,4.60
2019-02-14T15:59:04.771Z,5.33
2019-02-14T16:01:44.361Z,2.90
2019-02-14T16:04:22.934Z,5.23
2019-02-14T16:06:54.205Z,4.50
2019-02-14T16:09:30.761Z,4.03
2019-02-14T16:12:04.770Z,3.77
2019-02-14T16:14:42.665Z,3.67
2019-02-14T16:17:15.762Z,3.27
2019-02-14T16:19:47.250Z,6.30
2019-02-14T16:22:29.860Z,4.40
2019-02-14T16:24:59.314Z,3.30
2019-02-14T16:27:35.800Z,4.33
2019-02-14T16:30:08.884Z,3.50
2019-02-14T16:32:43.179Z,3.73
2019-02-14T16:35:17.600Z,3.50
2019-02-14T16:37:51.394Z,4.47
2019-02-14T16:40:28.143Z,6.10
2019-02-14T16:43:03.777Z,3.60
2019-02-14T16:45:36.246Z,4.17
2019-02-14T16:48:07.460Z,3.77
2019-02-14T16:50:44.670Z,3.53
2019-02-14T16:53:17.313Z,5.37
2019-02-14T16:58:29.582Z,3.93
2019-02-14T17:01:00.191Z,3.80
2019-02-14T17:06:08.973Z,8.53
2019-02-14T17:08:41.769Z,12.83
2019-02-14T17:11:24.265Z,8.67
2019-02-14T17:13:58.598Z,7.70
2019-02-14T17:16:31.310Z,6.97
2019-02-14T17:19:07.345Z,8.63
2019-02-14T17:21:39.747Z,5.77
2019-02-14T17:24:11.022Z,8.47
2019-02-14T17:26:45.235Z,10.43
2019-02-14T17:29:18.247Z,11.60
2019-02-14T17:31:51.451Z,12.00
2019-02-14T17:34:27.789Z,7.13
2019-02-14T17:37:00.346Z,5.80
2019-02-14T17:39:31.021Z,4.70
2019-02-14T17:42:01.645Z,5.30
2019-02-14T17:44:31.843Z,5.73
2019-02-14T17:47:04.728Z,5.73
2019-02-14T17:49:37.836Z,9.43
2019-02-14T17:52:14.530Z,4.90
2019-02-14T17:54:45.449Z,8.30
2019-02-14T17:57:19.166Z,6.53
2019-02-14T17:59:53.188Z,5.13
2019-02-14T18:02:30.878Z,4.37
2019-02-14T18:05:01.998Z,3.80
2019-02-14T18:07:33.012Z,3.40
2019-02-14T18:10:04.726Z,3.53
2019-02-14T18:12:39.317Z,3.17
2019-02-14T18:15:14.268Z,4.00
2019-02-14T18:17:45.293Z,4.53
2019-02-14T18:20:17.774Z,3.87
2019-02-14T18:22:50.158Z,4.97
2019-02-14T18:25:23.995Z,4.53
2019-02-14T18:27:56.958Z,8.37
2019-02-14T18:30:31.756Z,7.13
2019-02-14T18:33:08.540Z,5.57
2019-02-14T18:35:43.935Z,9.30
2019-02-14T18:38:14.685Z,12.53
2019-02-14T18:40:52.055Z,11.40
2019-02-14T18:43:27.589Z,9.97
2019-02-14T18:46:03.871Z,8.80
2019-02-14T18:48:40.023Z,6.63
2019-02-14T18:51:11.115Z,4.07
2019-02-14T18:53:52.343Z,3.27
2019-02-14T18:56:22.915Z,3.87
2019-02-14T18:58:54.791Z,5.13
2019-02-14T19:01:26.915Z,4.13
2019-02-14T19:03:59.800Z,3.93
2019-02-14T19:06:34.855Z,4.27
2019-02-14T19:09:10.217Z,3.57
2019-02-14T19:11:49.703Z,4.13
2019-02-14T19:15:04.695Z,4.20
2019-02-14T19:17:37.301Z,4.73
2019-02-14T19:20:14.335Z,4.57
2019-02-14T19:22:53.321Z,5.57
2019-02-14T19:25:29.739Z,5.47
2019-02-14T19:30:40.649Z,4.33
2019-02-14T19:33:11.373Z,4.20
2019-02-14T19:35:43.280Z,3.67
2019-02-14T19:38:17.850Z,3.83
2019-02-14T19:43:28.615Z,12.43
2019-02-14T19:46:04.121Z,14.20
2019-02-14T19:48:38.026Z,12.17
2019-02-14T19:51:10.490Z,8.00
2019-02-14T19:53:45.549Z,9.03
2019-02-14T19:56:18.938Z,6.47
2019-02-14T19:58:49.537Z,7.60
2019-02-14T20:01:24.049Z,10.73
2019-02-14T20:03:54.060Z,7.13
2019-02-14T20:06:30.665Z,8.60
2019-02-14T20:09:03.983Z,6.73
2019-02-14T20:11:40.344Z,5.73
2019-02-14T20:14:17.746Z,6.03
2019-02-14T20:16:49.446Z,6.77
2019-02-14T20:19:27.287Z,4.50
2019-02-14T20:22:13.185Z,6.73
2019-02-14T20:25:45.881Z,4.37
2019-02-14T20:28:18.718Z,4.67
2019-02-14T20:30:51.712Z,3.47
2019-02-14T20:36:58.736Z,3.70
2019-02-14T20:39:32.498Z,4.50
2019-02-14T20:42:08.730Z,3.70
2019-02-14T20:44:48.592Z,5.33
2019-02-14T20:47:18.842Z,6.30
2019-02-14T20:49:55.399Z,5.80
2019-02-14T20:52:31.879Z,5.77
2019-02-14T20:55:04.733Z,5.97
2019-02-14T20:57:47.136Z,6.53
2019-02-14T21:00:31.202Z,9.57
2019-02-14T21:03:08.781Z,9.80
2019-02-14T21:05:40.170Z,10.23
2019-02-14T21:08:20.013Z,7.40
2019-02-14T21:10:53.252Z,7.17
2019-02-14T21:13:31.286Z,7.97
2019-02-14T21:16:03.739Z,7.83
2019-02-14T21:18:46.982Z,7.90
2019-02-14T21:21:25.694Z,8.63
2019-02-14T21:24:00.925Z,10.10
2019-02-14T21:26:35.879Z,7.67
2019-02-14T21:29:14.361Z,7.63
2019-02-14T21:31:46.787Z,8.53
2019-02-14T21:34:23.092Z,7.00
2019-02-14T21:36:59.106Z,8.10
2019-02-14T21:39:29.819Z,8.67
2019-02-14T21:42:18.790Z,11.00
2019-02-14T21:44:38.655Z,12.53
2019-02-14T21:47:18.530Z,10.57
2019-02-14T21:49:50.028Z,12.00
2019-02-14T21:52:27.359Z,12.83
2019-02-14T21:54:57.895Z,11.33
2019-02-14T21:57:35.202Z,10.53
2019-02-14T22:00:10.794Z,17.33
2019-02-14T22:02:42.984Z,12.83
2019-02-14T22:05:14.702Z,12.07
2019-02-14T22:07:48.562Z,9.63
2019-02-14T22:10:23.024Z,8.23
2019-02-14T22:12:59.502Z,10.50
2019-02-14T22:15:33.794Z,8.20
2019-02-14T22:18:07.625Z,6.77
2019-02-14T22:20:41.719Z,8.20
2019-02-14T22:23:19.733Z,6.23
2019-02-14T22:25:56.697Z,8.23
2019-02-14T22:31:10.504Z,13.83
2019-02-14T22:33:40.860Z,23.47
2019-02-14T22:36:15.004Z,26.80
2019-02-14T22:38:47.954Z,22.37
2019-02-14T22:41:22.994Z,24.93
2019-02-14T22:43:56.830Z,19.80
2019-02-14T22:46:30.649Z,13.77
2019-02-14T22:49:03.404Z,8.87
2019-02-14T22:51:37.530Z,7.00
2019-02-14T22:54:12.237Z,5.60
2019-02-14T22:56:44.523Z,5.67
2019-02-14T23:01:56.958Z,4.67
2019-02-14T23:04:30.456Z,4.43
2019-02-14T23:07:02.233Z,6.63
2019-02-14T23:09:39.213Z,3.13
2019-02-14T23:12:12.648Z,4.50
2019-02-14T23:14:47.822Z,3.67
2019-02-14T23:17:22.482Z,5.77
2019-02-14T23:20:06.299Z,3.93
2019-02-14T23:22:36.770Z,4.17
2019-02-14T23:25:15.546Z,5.83
2019-02-14T23:27:49.306Z,4.67
2019-02-14T23:30:21.021Z,5.53
2019-02-14T23:32:57.172Z,5.47
2019-02-14T23:35:38.774Z,4.23
2019-02-14T23:38:13.412Z,4.13
2019-02-14T23:40:49.673Z,7.43
2019-02-14T23:43:37.818Z,4.60
2019-02-14T23:48:46.858Z,5.30
2019-02-14T23:51:24.050Z,3.60
2019-02-14T23:53:54.448Z,4.20
2019-02-14T23:56:30.355Z,3.43
2019-02-14T23:59:06.599Z,3.77
